sensor_id;sensor_type;location;lat;lon;timestamp;P1;durP1;ratioP1;P2;durP2;ratioP2
23252;SDS011;11795;47.054;15.408;2022-08-01T00:00:02;3.0;;;2.7;;
23252;SDS011;11795;47.054;15.408;2022-08-01T00:02:00;3.0;;;2.7;;
23252;SDS011;11795;47.054;15.408;2022-08-01T00:04:00;3.0;;;2.7;;
23252;SDS011;11795;47.054;15.408;2022-08-01T00:06:00;3.0;;;2.7;;
23252;SDS011;11795;47.054;15.408;2022-08-01T00:08:00;3.0;;;2.7;;
23252;SDS011;11795;47.054;15.408;2022-08-01T00:10:00;3.9;;;2.9;;
23252;SDS011;11795;47.054;15.408;2022-08-01T00:12:00;3.9;;;2.9;;
23252;SDS011;11795;47.054;15.408;2022-08-01T00:14:00;2.9;;;2.7;;
23252;SDS011;11795;47.054;15.408;2022-08-01T00:16:00;2.9;;;2.7;;
23252;SDS011;11795;47.054;15.408;2022-08-01T00:18:00;2.9;;;2.7;;
23252;SDS011;11795;47.054;15.408;2022-08-01T00:20:00;3.1;;;2.9;;
23252;SDS011;11795;47.054;15.408;2022-08-01T00:22:00;3.1;;;2.9;;
23252;SDS011;11795;47.054;15.408;2022-08-01T00:24:00;3.1;;;2.8;;
23252;SDS011;11795;47.054;15.408;2022-08-01T00:26:00;3.1;;;2.8;;
23252;SDS011;11795;47.054;15.408;2022-08-01T00:28:00;3.1;;;2.8;;
23252;SDS011;11795;47.054;15.408;2022-08-01T00:30:00;3.1;;;2.9;;
23252;SDS011;11795;47.054;15.408;2022-08-01T00:32:00;3.1;;;2.9;;
23252;SDS011;11795;47.054;15.408;2022-08-01T00:34:00;3.0;;;2.8;;
23252;SDS011;11795;47.054;15.408;2022-08-01T00:36:00;3.0;;;2.8;;
23252;SDS011;11795;47.054;15.408;2022-08-01T00:38:00;3.0;;;2.8;;
23252;SDS011;11795;47.054;15.408;2022-08-01T00:40:00;3.6;;;3.0;;
23252;SDS011;11795;47.054;15.408;2022-08-01T00:42:01;3.6;;;3.0;;
23252;SDS011;11795;47.054;15.408;2022-08-01T00:44:01;3.1;;;2.8;;
23252;SDS011;11795;47.054;15.408;2022-08-01T00:46:00;3.1;;;2.8;;
23252;SDS011;11795;47.054;15.408;2022-08-01T00:48:00;3.1;;;2.8;;
23252;SDS011;11795;47.054;15.408;2022-08-01T00:50:00;3.4;;;3.1;;
23252;SDS011;11795;47.054;15.408;2022-08-01T00:52:00;3.4;;;3.1;;
23252;SDS011;11795;47.054;15.408;2022-08-01T00:54:00;3.2;;;2.9;;
23252;SDS011;11795;47.054;15.408;2022-08-01T00:56:00;3.2;;;2.9;;
23252;SDS011;11795;47.054;15.408;2022-08-01T00:58:00;3.2;;;2.9;;
23252;SDS011;11795;47.054;15.408;2022-08-01T01:00:00;2.9;;;2.7;;
23252;SDS011;11795;47.054;15.408;2022-08-01T01:02:00;2.9;;;2.7;;
23252;SDS011;11795;47.054;15.408;2022-08-01T01:04:00;3.3;;;2.7;;
23252;SDS011;11795;47.054;15.408;2022-08-01T01:06:04;3.3;;;2.7;;
23252;SDS011;11795;47.054;15.408;2022-08-01T01:08:02;3.3;;;2.7;;
23252;SDS011;11795;47.054;15.408;2022-08-01T01:10:02;3.1;;;2.8;;
23252;SDS011;11795;47.054;15.408;2022-08-01T01:12:02;3.1;;;2.8;;
23252;SDS011;11795;47.054;15.408;2022-08-01T01:14:02;3.1;;;2.8;;
23252;SDS011;11795;47.054;15.408;2022-08-01T01:16:01;3.1;;;2.8;;
23252;SDS011;11795;47.054;15.408;2022-08-01T01:18:00;3.1;;;2.8;;
23252;SDS011;11795;47.054;15.408;2022-08-01T01:20:00;3.3;;;2.9;;
23252;SDS011;11795;47.054;15.408;2022-08-01T01:22:01;3.3;;;2.9;;
23252;SDS011;11795;47.054;15.408;2022-08-01T01:24:03;2.9;;;2.7;;
23252;SDS011;11795;47.054;15.408;2022-08-01T01:26:04;2.9;;;2.7;;
23252;SDS011;11795;47.054;15.408;2022-08-01T01:28:02;2.9;;;2.7;;
23252;SDS011;11795;47.054;15.408;2022-08-01T01:30:00;3.0;;;2.8;;
23252;SDS011;11795;47.054;15.408;2022-08-01T01:32:02;3.0;;;2.8;;
23252;SDS011;11795;47.054;15.408;2022-08-01T01:34:00;3.2;;;2.9;;
23252;SDS011;11795;47.054;15.408;2022-08-01T01:36:02;3.2;;;2.9;;
23252;SDS011;11795;47.054;15.408;2022-08-01T01:38:01;3.2;;;2.9;;
23252;SDS011;11795;47.054;15.408;2022-08-01T01:40:00;2.8;;;2.6;;
23252;SDS011;11795;47.054;15.408;2022-08-01T01:42:00;2.8;;;2.6;;
23252;SDS011;11795;47.054;15.408;2022-08-01T01:44:00;2.9;;;2.7;;
23252;SDS011;11795;47.054;15.408;2022-08-01T01:46:00;2.9;;;2.7;;
23252;SDS011;11795;47.054;15.408;2022-08-01T01:48:00;2.9;;;2.7;;
23252;SDS011;11795;47.054;15.408;2022-08-01T01:50:00;3.3;;;3.0;;
23252;SDS011;11795;47.054;15.408;2022-08-01T01:52:00;3.3;;;3.0;;
23252;SDS011;11795;47.054;15.408;2022-08-01T01:54:00;3.2;;;3.0;;
23252;SDS011;11795;47.054;15.408;2022-08-01T01:56:00;3.2;;;3.0;;
23252;SDS011;11795;47.054;15.408;2022-08-01T01:58:00;3.2;;;3.0;;
23252;SDS011;11795;47.054;15.408;2022-08-01T02:00:00;3.2;;;2.9;;
23252;SDS011;11795;47.054;15.408;2022-08-01T02:02:01;3.2;;;2.9;;
23252;SDS011;11795;47.054;15.408;2022-08-01T02:04:00;3.2;;;2.8;;
23252;SDS011;11795;47.054;15.408;2022-08-01T02:06:00;3.2;;;2.8;;
23252;SDS011;11795;47.054;15.408;2022-08-01T02:08:00;3.2;;;2.8;;
23252;SDS011;11795;47.054;15.408;2022-08-01T02:10:00;2.9;;;2.7;;
23252;SDS011;11795;47.054;15.408;2022-08-01T02:12:00;2.9;;;2.7;;
23252;SDS011;11795;47.054;15.408;2022-08-01T02:14:00;3.0;;;2.8;;
23252;SDS011;11795;47.054;15.408;2022-08-01T02:16:00;3.0;;;2.8;;
23252;SDS011;11795;47.054;15.408;2022-08-01T02:18:01;3.0;;;2.8;;
23252;SDS011;11795;47.054;15.408;2022-08-01T02:20:00;3.2;;;2.9;;
23252;SDS011;11795;47.054;15.408;2022-08-01T02:22:01;3.2;;;2.9;;
23252;SDS011;11795;47.054;15.408;2022-08-01T02:24:01;3.4;;;3.1;;
23252;SDS011;11795;47.054;15.408;2022-08-01T02:26:00;3.4;;;3.1;;
23252;SDS011;11795;47.054;15.408;2022-08-01T02:28:03;3.4;;;3.1;;
23252;SDS011;11795;47.054;15.408;2022-08-01T02:30:02;3.7;;;3.3;;
23252;SDS011;11795;47.054;15.408;2022-08-01T02:32:00;3.7;;;3.3;;
23252;SDS011;11795;47.054;15.408;2022-08-01T02:34:03;3.4;;;3.1;;
23252;SDS011;11795;47.054;15.408;2022-08-01T02:36:00;3.4;;;3.1;;
23252;SDS011;11795;47.054;15.408;2022-08-01T02:38:01;3.4;;;3.1;;
23252;SDS011;11795;47.054;15.408;2022-08-01T02:40:00;3.2;;;2.8;;
23252;SDS011;11795;47.054;15.408;2022-08-01T02:42:02;3.2;;;2.8;;
23252;SDS011;11795;47.054;15.408;2022-08-01T02:44:02;3.1;;;2.8;;
23252;SDS011;11795;47.054;15.408;2022-08-01T02:46:01;3.1;;;2.8;;
23252;SDS011;11795;47.054;15.408;2022-08-01T02:48:01;3.1;;;2.8;;
23252;SDS011;11795;47.054;15.408;2022-08-01T02:50:00;3.6;;;3.3;;
23252;SDS011;11795;47.054;15.408;2022-08-01T02:52:00;3.6;;;3.3;;
23252;SDS011;11795;47.054;15.408;2022-08-01T02:54:00;3.3;;;3.0;;
23252;SDS011;11795;47.054;15.408;2022-08-01T02:56:00;3.3;;;3.0;;
23252;SDS011;11795;47.054;15.408;2022-08-01T02:58:00;3.3;;;3.0;;
23252;SDS011;11795;47.054;15.408;2022-08-01T03:00:00;3.6;;;3.2;;
23252;SDS011;11795;47.054;15.408;2022-08-01T03:02:00;3.6;;;3.2;;
23252;SDS011;11795;47.054;15.408;2022-08-01T03:04:00;3.2;;;2.9;;
23252;SDS011;11795;47.054;15.408;2022-08-01T03:06:00;3.2;;;2.9;;
23252;SDS011;11795;47.054;15.408;2022-08-01T03:08:00;3.2;;;2.9;;
23252;SDS011;11795;47.054;15.408;2022-08-01T03:10:00;3.4;;;3.1;;
23252;SDS011;11795;47.054;15.408;2022-08-01T03:12:00;3.4;;;3.1;;
23252;SDS011;11795;47.054;15.408;2022-08-01T03:14:00;3.7;;;3.4;;
23252;SDS011;11795;47.054;15.408;2022-08-01T03:16:00;3.7;;;3.4;;
23252;SDS011;11795;47.054;15.408;2022-08-01T03:18:00;3.7;;;3.4;;
23252;SDS011;11795;47.054;15.408;2022-08-01T03:20:00;3.2;;;3.0;;
23252;SDS011;11795;47.054;15.408;2022-08-01T03:22:00;3.2;;;3.0;;
23252;SDS011;11795;47.054;15.408;2022-08-01T03:24:00;3.2;;;3.0;;
23252;SDS011;11795;47.054;15.408;2022-08-01T03:26:00;3.8;;;3.4;;
23252;SDS011;11795;47.054;15.408;2022-08-01T03:28:01;3.8;;;3.4;;
23252;SDS011;11795;47.054;15.408;2022-08-01T03:30:00;3.0;;;2.8;;
23252;SDS011;11795;47.054;15.408;2022-08-01T03:32:00;3.0;;;2.8;;
23252;SDS011;11795;47.054;15.408;2022-08-01T03:34:00;3.0;;;2.8;;
23252;SDS011;11795;47.054;15.408;2022-08-01T03:36:00;3.5;;;3.2;;
23252;SDS011;11795;47.054;15.408;2022-08-01T03:38:00;3.5;;;3.2;;
23252;SDS011;11795;47.054;15.408;2022-08-01T03:40:02;4.2;;;3.1;;
23252;SDS011;11795;47.054;15.408;2022-08-01T03:42:01;4.2;;;3.1;;
23252;SDS011;11795;47.054;15.408;2022-08-01T03:44:00;4.2;;;3.1;;
23252;SDS011;11795;47.054;15.408;2022-08-01T03:46:01;3.5;;;3.2;;
23252;SDS011;11795;47.054;15.408;2022-08-01T03:48:01;3.5;;;3.2;;
23252;SDS011;11795;47.054;15.408;2022-08-01T03:50:00;3.5;;;3.2;;
23252;SDS011;11795;47.054;15.408;2022-08-01T03:52:00;3.5;;;3.2;;
23252;SDS011;11795;47.054;15.408;2022-08-01T03:54:00;3.5;;;3.2;;
23252;SDS011;11795;47.054;15.408;2022-08-01T03:56:00;3.6;;;3.3;;
23252;SDS011;11795;47.054;15.408;2022-08-01T03:58:00;3.6;;;3.3;;
23252;SDS011;11795;47.054;15.408;2022-08-01T04:00:00;3.3;;;3.1;;
23252;SDS011;11795;47.054;15.408;2022-08-01T04:02:00;3.3;;;3.1;;
23252;SDS011;11795;47.054;15.408;2022-08-01T04:04:00;3.3;;;3.1;;
23252;SDS011;11795;47.054;15.408;2022-08-01T04:06:03;3.9;;;3.5;;
23252;SDS011;11795;47.054;15.408;2022-08-01T04:08:02;3.9;;;3.5;;
23252;SDS011;11795;47.054;15.408;2022-08-01T04:10:00;3.7;;;3.4;;
23252;SDS011;11795;47.054;15.408;2022-08-01T04:12:00;3.7;;;3.4;;
23252;SDS011;11795;47.054;15.408;2022-08-01T04:14:00;3.7;;;3.4;;
23252;SDS011;11795;47.054;15.408;2022-08-01T04:16:00;4.0;;;3.6;;
23252;SDS011;11795;47.054;15.408;2022-08-01T04:18:00;4.0;;;3.6;;
23252;SDS011;11795;47.054;15.408;2022-08-01T04:20:00;3.7;;;3.1;;
23252;SDS011;11795;47.054;15.408;2022-08-01T04:22:00;3.7;;;3.1;;
23252;SDS011;11795;47.054;15.408;2022-08-01T04:24:01;3.7;;;3.1;;
23252;SDS011;11795;47.054;15.408;2022-08-01T04:26:00;3.8;;;3.2;;
23252;SDS011;11795;47.054;15.408;2022-08-01T04:28:00;3.8;;;3.2;;
23252;SDS011;11795;47.054;15.408;2022-08-01T04:30:00;4.4;;;4.0;;
23252;SDS011;11795;47.054;15.408;2022-08-01T04:32:00;4.4;;;4.0;;
23252;SDS011;11795;47.054;15.408;2022-08-01T04:34:00;4.4;;;4.0;;
23252;SDS011;11795;47.054;15.408;2022-08-01T04:36:00;4.1;;;3.7;;
23252;SDS011;11795;47.054;15.408;2022-08-01T04:38:01;4.1;;;3.7;;
23252;SDS011;11795;47.054;15.408;2022-08-01T04:40:00;4.1;;;3.6;;
23252;SDS011;11795;47.054;15.408;2022-08-01T04:42:04;4.1;;;3.6;;
23252;SDS011;11795;47.054;15.408;2022-08-01T04:44:00;4.1;;;3.6;;
23252;SDS011;11795;47.054;15.408;2022-08-01T04:46:00;3.9;;;3.6;;
23252;SDS011;11795;47.054;15.408;2022-08-01T04:48:00;3.9;;;3.6;;
23252;SDS011;11795;47.054;15.408;2022-08-01T04:50:00;4.8;;;3.7;;
23252;SDS011;11795;47.054;15.408;2022-08-01T04:52:00;4.8;;;3.7;;
23252;SDS011;11795;47.054;15.408;2022-08-01T04:54:01;4.8;;;3.7;;
23252;SDS011;11795;47.054;15.408;2022-08-01T04:56:00;3.8;;;3.5;;
23252;SDS011;11795;47.054;15.408;2022-08-01T04:58:00;3.8;;;3.5;;
23252;SDS011;11795;47.054;15.408;2022-08-01T05:00:02;3.6;;;3.3;;
23252;SDS011;11795;47.054;15.408;2022-08-01T05:02:00;3.6;;;3.3;;
23252;SDS011;11795;47.054;15.408;2022-08-01T05:04:00;3.6;;;3.3;;
23252;SDS011;11795;47.054;15.408;2022-08-01T05:06:00;4.3;;;3.2;;
23252;SDS011;11795;47.054;15.408;2022-08-01T05:08:00;4.3;;;3.2;;
23252;SDS011;11795;47.054;15.408;2022-08-01T05:10:01;4.3;;;3.9;;
23252;SDS011;11795;47.054;15.408;2022-08-01T05:12:01;4.3;;;3.9;;
23252;SDS011;11795;47.054;15.408;2022-08-01T05:14:00;4.3;;;3.9;;
23252;SDS011;11795;47.054;15.408;2022-08-01T05:16:03;4.4;;;4.0;;
23252;SDS011;11795;47.054;15.408;2022-08-01T05:18:00;4.4;;;4.0;;
23252;SDS011;11795;47.054;15.408;2022-08-01T05:20:00;4.2;;;3.8;;
23252;SDS011;11795;47.054;15.408;2022-08-01T05:22:01;4.2;;;3.8;;
23252;SDS011;11795;47.054;15.408;2022-08-01T05:24:00;4.2;;;3.8;;
23252;SDS011;11795;47.054;15.408;2022-08-01T05:26:00;3.9;;;3.5;;
23252;SDS011;11795;47.054;15.408;2022-08-01T05:28:00;3.9;;;3.5;;
23252;SDS011;11795;47.054;15.408;2022-08-01T05:30:00;4.8;;;3.7;;
23252;SDS011;11795;47.054;15.408;2022-08-01T05:32:00;4.8;;;3.7;;
23252;SDS011;11795;47.054;15.408;2022-08-01T05:34:00;4.8;;;3.7;;
23252;SDS011;11795;47.054;15.408;2022-08-01T05:36:00;4.2;;;3.8;;
23252;SDS011;11795;47.054;15.408;2022-08-01T05:38:00;4.2;;;3.8;;
23252;SDS011;11795;47.054;15.408;2022-08-01T05:40:00;4.6;;;3.8;;
23252;SDS011;11795;47.054;15.408;2022-08-01T05:42:00;4.6;;;3.8;;
23252;SDS011;11795;47.054;15.408;2022-08-01T05:44:00;4.6;;;3.8;;
23252;SDS011;11795;47.054;15.408;2022-08-01T05:46:01;3.9;;;3.5;;
23252;SDS011;11795;47.054;15.408;2022-08-01T05:48:00;3.9;;;3.5;;
23252;SDS011;11795;47.054;15.408;2022-08-01T05:50:00;5.5;;;4.1;;
23252;SDS011;11795;47.054;15.408;2022-08-01T05:52:01;5.5;;;4.1;;
23252;SDS011;11795;47.054;15.408;2022-08-01T05:54:00;5.5;;;4.1;;
23252;SDS011;11795;47.054;15.408;2022-08-01T05:56:00;4.4;;;4.0;;
23252;SDS011;11795;47.054;15.408;2022-08-01T05:58:01;4.4;;;4.0;;
23252;SDS011;11795;47.054;15.408;2022-08-01T06:00:00;4.8;;;4.2;;
23252;SDS011;11795;47.054;15.408;2022-08-01T06:02:00;4.8;;;4.2;;
23252;SDS011;11795;47.054;15.408;2022-08-01T06:04:00;4.8;;;4.2;;
23252;SDS011;11795;47.054;15.408;2022-08-01T06:06:00;4.4;;;4.0;;
23252;SDS011;11795;47.054;15.408;2022-08-01T06:08:00;4.4;;;4.0;;
23252;SDS011;11795;47.054;15.408;2022-08-01T06:10:00;4.4;;;3.9;;
23252;SDS011;11795;47.054;15.408;2022-08-01T06:12:00;4.4;;;3.9;;
23252;SDS011;11795;47.054;15.408;2022-08-01T06:14:00;4.4;;;3.9;;
23252;SDS011;11795;47.054;15.408;2022-08-01T06:16:00;4.5;;;4.0;;
23252;SDS011;11795;47.054;15.408;2022-08-01T06:18:00;4.5;;;4.0;;
23252;SDS011;11795;47.054;15.408;2022-08-01T06:20:00;4.5;;;4.1;;
23252;SDS011;11795;47.054;15.408;2022-08-01T06:22:00;4.5;;;4.1;;
23252;SDS011;11795;47.054;15.408;2022-08-01T06:24:00;4.5;;;4.1;;
23252;SDS011;11795;47.054;15.408;2022-08-01T06:26:00;6.9;;;4.3;;
23252;SDS011;11795;47.054;15.408;2022-08-01T06:28:00;6.9;;;4.3;;
23252;SDS011;11795;47.054;15.408;2022-08-01T06:30:00;6.6;;;4.3;;
23252;SDS011;11795;47.054;15.408;2022-08-01T06:32:00;6.6;;;4.3;;
23252;SDS011;11795;47.054;15.408;2022-08-01T06:34:00;6.6;;;4.3;;
23252;SDS011;11795;47.054;15.408;2022-08-01T06:36:00;4.9;;;4.4;;
23252;SDS011;11795;47.054;15.408;2022-08-01T06:38:01;4.9;;;4.4;;
23252;SDS011;11795;47.054;15.408;2022-08-01T06:40:00;5.3;;;4.2;;
23252;SDS011;11795;47.054;15.408;2022-08-01T06:42:00;5.3;;;4.2;;
23252;SDS011;11795;47.054;15.408;2022-08-01T06:44:02;5.3;;;4.2;;
23252;SDS011;11795;47.054;15.408;2022-08-01T06:46:00;4.6;;;3.7;;
23252;SDS011;11795;47.054;15.408;2022-08-01T06:48:00;4.6;;;3.7;;
23252;SDS011;11795;47.054;15.408;2022-08-01T06:50:00;4.4;;;3.6;;
23252;SDS011;11795;47.054;15.408;2022-08-01T06:52:00;4.4;;;3.6;;
23252;SDS011;11795;47.054;15.408;2022-08-01T06:54:00;4.4;;;3.6;;
23252;SDS011;11795;47.054;15.408;2022-08-01T06:56:01;4.2;;;3.8;;
23252;SDS011;11795;47.054;15.408;2022-08-01T06:58:00;4.2;;;3.8;;
23252;SDS011;11795;47.054;15.408;2022-08-01T07:00:00;4.0;;;3.7;;
23252;SDS011;11795;47.054;15.408;2022-08-01T07:02:01;4.0;;;3.7;;
23252;SDS011;11795;47.054;15.408;2022-08-01T07:04:00;4.0;;;3.7;;
23252;SDS011;11795;47.054;15.408;2022-08-01T07:06:00;4.4;;;4.0;;
23252;SDS011;11795;47.054;15.408;2022-08-01T07:08:00;4.4;;;4.0;;
23252;SDS011;11795;47.054;15.408;2022-08-01T07:10:00;4.5;;;3.9;;
23252;SDS011;11795;47.054;15.408;2022-08-01T07:12:00;4.5;;;3.9;;
23252;SDS011;11795;47.054;15.408;2022-08-01T07:14:00;4.5;;;3.9;;
23252;SDS011;11795;47.054;15.408;2022-08-01T07:16:00;5.7;;;4.2;;
23252;SDS011;11795;47.054;15.408;2022-08-01T07:18:03;5.7;;;4.2;;
23252;SDS011;11795;47.054;15.408;2022-08-01T07:20:01;6.2;;;4.1;;
23252;SDS011;11795;47.054;15.408;2022-08-01T07:22:00;6.2;;;4.1;;
23252;SDS011;11795;47.054;15.408;2022-08-01T07:24:00;6.2;;;4.1;;
23252;SDS011;11795;47.054;15.408;2022-08-01T07:26:02;3.8;;;3.4;;
23252;SDS011;11795;47.054;15.408;2022-08-01T07:28:00;3.8;;;3.4;;
23252;SDS011;11795;47.054;15.408;2022-08-01T07:30:00;3.6;;;3.3;;
23252;SDS011;11795;47.054;15.408;2022-08-01T07:32:00;3.6;;;3.3;;
23252;SDS011;11795;47.054;15.408;2022-08-01T07:34:00;3.6;;;3.3;;
23252;SDS011;11795;47.054;15.408;2022-08-01T07:36:00;5.8;;;3.8;;
23252;SDS011;11795;47.054;15.408;2022-08-01T07:38:00;5.8;;;3.8;;
23252;SDS011;11795;47.054;15.408;2022-08-01T07:40:00;3.9;;;3.5;;
23252;SDS011;11795;47.054;15.408;2022-08-01T07:42:00;3.9;;;3.5;;
23252;SDS011;11795;47.054;15.408;2022-08-01T07:44:00;3.9;;;3.5;;
23252;SDS011;11795;47.054;15.408;2022-08-01T07:46:00;3.5;;;3.2;;
23252;SDS011;11795;47.054;15.408;2022-08-01T07:48:02;3.5;;;3.2;;
23252;SDS011;11795;47.054;15.408;2022-08-01T07:50:00;5.9;;;3.6;;
23252;SDS011;11795;47.054;15.408;2022-08-01T07:52:00;5.9;;;3.6;;
23252;SDS011;11795;47.054;15.408;2022-08-01T07:54:00;5.9;;;3.6;;
23252;SDS011;11795;47.054;15.408;2022-08-01T07:56:02;4.4;;;3.3;;
23252;SDS011;11795;47.054;15.408;2022-08-01T07:58:00;4.4;;;3.3;;
23252;SDS011;11795;47.054;15.408;2022-08-01T08:00:00;4.4;;;3.3;;
23252;SDS011;11795;47.054;15.408;2022-08-01T08:02:00;6.6;;;3.8;;
23252;SDS011;11795;47.054;15.408;2022-08-01T08:04:00;6.6;;;3.8;;
23252;SDS011;11795;47.054;15.408;2022-08-01T08:06:00;4.5;;;3.2;;
23252;SDS011;11795;47.054;15.408;2022-08-01T08:08:00;4.5;;;3.2;;
23252;SDS011;11795;47.054;15.408;2022-08-01T08:10:00;4.5;;;3.2;;
23252;SDS011;11795;47.054;15.408;2022-08-01T08:12:00;5.7;;;3.9;;
23252;SDS011;11795;47.054;15.408;2022-08-01T08:14:00;5.7;;;3.9;;
23252;SDS011;11795;47.054;15.408;2022-08-01T08:16:00;3.9;;;3.4;;
23252;SDS011;11795;47.054;15.408;2022-08-01T08:18:00;3.9;;;3.4;;
23252;SDS011;11795;47.054;15.408;2022-08-01T08:20:00;3.9;;;3.4;;
23252;SDS011;11795;47.054;15.408;2022-08-01T08:22:00;5.9;;;3.3;;
23252;SDS011;11795;47.054;15.408;2022-08-01T08:24:10;5.9;;;3.3;;
23252;SDS011;11795;47.054;15.408;2022-08-01T08:26:00;8.2;;;3.9;;
23252;SDS011;11795;47.054;15.408;2022-08-01T08:28:00;8.2;;;3.9;;
23252;SDS011;11795;47.054;15.408;2022-08-01T08:30:00;8.2;;;3.9;;
23252;SDS011;11795;47.054;15.408;2022-08-01T08:32:00;8.6;;;3.8;;
23252;SDS011;11795;47.054;15.408;2022-08-01T08:34:00;8.6;;;3.8;;
23252;SDS011;11795;47.054;15.408;2022-08-01T08:36:00;11.7;;;4.0;;
23252;SDS011;11795;47.054;15.408;2022-08-01T08:38:00;11.7;;;4.0;;
23252;SDS011;11795;47.054;15.408;2022-08-01T08:40:00;11.7;;;4.0;;
23252;SDS011;11795;47.054;15.408;2022-08-01T08:42:04;12.0;;;4.5;;
23252;SDS011;11795;47.054;15.408;2022-08-01T08:44:00;12.0;;;4.5;;
23252;SDS011;11795;47.054;15.408;2022-08-01T08:46:00;10.9;;;3.6;;
23252;SDS011;11795;47.054;15.408;2022-08-01T08:48:00;10.9;;;3.6;;
23252;SDS011;11795;47.054;15.408;2022-08-01T08:50:00;10.9;;;3.6;;
23252;SDS011;11795;47.054;15.408;2022-08-01T08:52:00;8.9;;;3.6;;
23252;SDS011;11795;47.054;15.408;2022-08-01T08:54:00;8.9;;;3.6;;
23252;SDS011;11795;47.054;15.408;2022-08-01T08:56:00;6.8;;;3.1;;
23252;SDS011;11795;47.054;15.408;2022-08-01T08:58:02;6.8;;;3.1;;
23252;SDS011;11795;47.054;15.408;2022-08-01T09:00:00;6.8;;;3.1;;
23252;SDS011;11795;47.054;15.408;2022-08-01T09:02:00;7.4;;;3.4;;
23252;SDS011;11795;47.054;15.408;2022-08-01T09:04:00;7.4;;;3.4;;
23252;SDS011;11795;47.054;15.408;2022-08-01T09:06:00;5.2;;;3.1;;
23252;SDS011;11795;47.054;15.408;2022-08-01T09:08:00;5.2;;;3.1;;
23252;SDS011;11795;47.054;15.408;2022-08-01T09:10:00;5.2;;;3.1;;
23252;SDS011;11795;47.054;15.408;2022-08-01T09:12:00;4.8;;;3.1;;
23252;SDS011;11795;47.054;15.408;2022-08-01T09:14:02;4.8;;;3.1;;
23252;SDS011;11795;47.054;15.408;2022-08-01T09:16:00;6.5;;;3.4;;
23252;SDS011;11795;47.054;15.408;2022-08-01T09:18:00;6.5;;;3.4;;
23252;SDS011;11795;47.054;15.408;2022-08-01T09:20:00;6.5;;;3.4;;
23252;SDS011;11795;47.054;15.408;2022-08-01T09:22:00;8.7;;;3.1;;
23252;SDS011;11795;47.054;15.408;2022-08-01T09:24:03;8.7;;;3.1;;
23252;SDS011;11795;47.054;15.408;2022-08-01T09:26:00;7.3;;;3.1;;
23252;SDS011;11795;47.054;15.408;2022-08-01T09:28:02;7.3;;;3.1;;
23252;SDS011;11795;47.054;15.408;2022-08-01T09:30:08;7.3;;;3.1;;
23252;SDS011;11795;47.054;15.408;2022-08-01T09:32:00;5.0;;;2.8;;
23252;SDS011;11795;47.054;15.408;2022-08-01T09:34:00;5.0;;;2.8;;
23252;SDS011;11795;47.054;15.408;2022-08-01T09:36:00;3.9;;;2.4;;
23252;SDS011;11795;47.054;15.408;2022-08-01T09:40:00;3.9;;;2.4;;
23252;SDS011;11795;47.054;15.408;2022-08-01T09:42:01;4.2;;;2.5;;
23252;SDS011;11795;47.054;15.408;2022-08-01T09:44:00;4.2;;;2.5;;
23252;SDS011;11795;47.054;15.408;2022-08-01T09:46:04;3.5;;;2.1;;
23252;SDS011;11795;47.054;15.408;2022-08-01T09:48:05;3.5;;;2.1;;
23252;SDS011;11795;47.054;15.408;2022-08-01T09:50:00;3.5;;;2.1;;
23252;SDS011;11795;47.054;15.408;2022-08-01T09:52:09;2.6;;;1.9;;
23252;SDS011;11795;47.054;15.408;2022-08-01T09:54:00;2.6;;;1.9;;
23252;SDS011;11795;47.054;15.408;2022-08-01T09:56:08;2.8;;;1.9;;
23252;SDS011;11795;47.054;15.408;2022-08-01T09:58:00;2.8;;;1.9;;
23252;SDS011;11795;47.054;15.408;2022-08-01T10:00:00;2.8;;;1.9;;
23252;SDS011;11795;47.054;15.408;2022-08-01T10:02:00;3.2;;;1.7;;
23252;SDS011;11795;47.054;15.408;2022-08-01T10:04:04;3.2;;;1.7;;
23252;SDS011;11795;47.054;15.408;2022-08-01T10:06:00;3.1;;;1.5;;
23252;SDS011;11795;47.054;15.408;2022-08-01T10:08:01;3.1;;;1.5;;
23252;SDS011;11795;47.054;15.408;2022-08-01T10:10:08;3.1;;;1.5;;
23252;SDS011;11795;47.054;15.408;2022-08-01T10:12:00;3.6;;;1.6;;
23252;SDS011;11795;47.054;15.408;2022-08-01T10:14:00;3.6;;;1.6;;
23252;SDS011;11795;47.054;15.408;2022-08-01T10:16:00;2.2;;;1.6;;
23252;SDS011;11795;47.054;15.408;2022-08-01T10:18:00;2.2;;;1.6;;
23252;SDS011;11795;47.054;15.408;2022-08-01T10:20:00;2.2;;;1.6;;
23252;SDS011;11795;47.054;15.408;2022-08-01T10:22:00;1.7;;;1.4;;
23252;SDS011;11795;47.054;15.408;2022-08-01T10:24:01;1.7;;;1.4;;
23252;SDS011;11795;47.054;15.408;2022-08-01T10:26:00;2.8;;;1.6;;
23252;SDS011;11795;47.054;15.408;2022-08-01T10:28:00;2.8;;;1.6;;
23252;SDS011;11795;47.054;15.408;2022-08-01T10:30:04;2.8;;;1.6;;
23252;SDS011;11795;47.054;15.408;2022-08-01T10:32:00;1.6;;;1.4;;
23252;SDS011;11795;47.054;15.408;2022-08-01T10:34:00;1.6;;;1.4;;
23252;SDS011;11795;47.054;15.408;2022-08-01T10:36:00;3.8;;;1.9;;
23252;SDS011;11795;47.054;15.408;2022-08-01T10:38:00;3.8;;;1.9;;
23252;SDS011;11795;47.054;15.408;2022-08-01T10:40:00;3.8;;;1.9;;
23252;SDS011;11795;47.054;15.408;2022-08-01T10:42:00;3.1;;;1.6;;
23252;SDS011;11795;47.054;15.408;2022-08-01T10:44:00;3.1;;;1.6;;
23252;SDS011;11795;47.054;15.408;2022-08-01T10:46:00;2.7;;;1.5;;
23252;SDS011;11795;47.054;15.408;2022-08-01T10:48:02;2.7;;;1.5;;
23252;SDS011;11795;47.054;15.408;2022-08-01T10:50:01;2.7;;;1.5;;
23252;SDS011;11795;47.054;15.408;2022-08-01T10:52:00;3.1;;;1.6;;
23252;SDS011;11795;47.054;15.408;2022-08-01T10:54:02;3.1;;;1.6;;
23252;SDS011;11795;47.054;15.408;2022-08-01T10:56:03;1.9;;;1.6;;
23252;SDS011;11795;47.054;15.408;2022-08-01T10:58:00;1.9;;;1.6;;
23252;SDS011;11795;47.054;15.408;2022-08-01T11:00:00;1.9;;;1.6;;
23252;SDS011;11795;47.054;15.408;2022-08-01T11:02:01;2.4;;;1.5;;
23252;SDS011;11795;47.054;15.408;2022-08-01T11:04:03;2.4;;;1.5;;
23252;SDS011;11795;47.054;15.408;2022-08-01T11:06:00;2.6;;;1.5;;
23252;SDS011;11795;47.054;15.408;2022-08-01T11:08:01;2.6;;;1.5;;
23252;SDS011;11795;47.054;15.408;2022-08-01T11:10:02;2.6;;;1.5;;
23252;SDS011;11795;47.054;15.408;2022-08-01T11:12:03;1.8;;;1.4;;
23252;SDS011;11795;47.054;15.408;2022-08-01T11:14:01;1.8;;;1.4;;
23252;SDS011;11795;47.054;15.408;2022-08-01T11:16:10;1.6;;;1.5;;
23252;SDS011;11795;47.054;15.408;2022-08-01T11:18:01;1.6;;;1.5;;
23252;SDS011;11795;47.054;15.408;2022-08-01T11:20:04;1.6;;;1.5;;
23252;SDS011;11795;47.054;15.408;2022-08-01T11:22:03;1.7;;;1.3;;
23252;SDS011;11795;47.054;15.408;2022-08-01T11:24:00;1.7;;;1.3;;
23252;SDS011;11795;47.054;15.408;2022-08-01T11:34:00;2.2;;;1.6;;
23252;SDS011;11795;47.054;15.408;2022-08-01T11:44:00;1.5;;;1.1;;
23252;SDS011;11795;47.054;15.408;2022-08-01T11:46:00;1.5;;;1.1;;
23252;SDS011;11795;47.054;15.408;2022-08-01T11:48:00;2.4;;;1.2;;
23252;SDS011;11795;47.054;15.408;2022-08-01T11:50:01;2.4;;;1.2;;
23252;SDS011;11795;47.054;15.408;2022-08-01T11:52:01;1.3;;;1.1;;
23252;SDS011;11795;47.054;15.408;2022-08-01T11:54:00;1.3;;;1.1;;
23252;SDS011;11795;47.054;15.408;2022-08-01T11:56:00;1.3;;;1.1;;
23252;SDS011;11795;47.054;15.408;2022-08-01T11:58:01;1.9;;;1.0;;
23252;SDS011;11795;47.054;15.408;2022-08-01T12:00:01;1.9;;;1.0;;
23252;SDS011;11795;47.054;15.408;2022-08-01T12:02:02;1.8;;;1.0;;
23252;SDS011;11795;47.054;15.408;2022-08-01T12:04:00;1.8;;;1.0;;
23252;SDS011;11795;47.054;15.408;2022-08-01T12:06:00;1.8;;;1.0;;
23252;SDS011;11795;47.054;15.408;2022-08-01T12:08:00;1.8;;;1.0;;
23252;SDS011;11795;47.054;15.408;2022-08-01T12:10:01;1.8;;;1.0;;
23252;SDS011;11795;47.054;15.408;2022-08-01T12:12:00;1.5;;;0.8;;
23252;SDS011;11795;47.054;15.408;2022-08-01T12:14:00;1.5;;;0.8;;
23252;SDS011;11795;47.054;15.408;2022-08-01T12:16:06;1.5;;;0.8;;
23252;SDS011;11795;47.054;15.408;2022-08-01T12:18:00;2.2;;;0.9;;
23252;SDS011;11795;47.054;15.408;2022-08-01T12:20:00;2.2;;;0.9;;
23252;SDS011;11795;47.054;15.408;2022-08-01T12:22:08;5.3;;;0.8;;
23252;SDS011;11795;47.054;15.408;2022-08-01T12:24:00;5.3;;;0.8;;
23252;SDS011;11795;47.054;15.408;2022-08-01T12:26:00;5.3;;;0.8;;
23252;SDS011;11795;47.054;15.408;2022-08-01T12:28:00;0.8;;;0.6;;
23252;SDS011;11795;47.054;15.408;2022-08-01T12:30:00;0.8;;;0.6;;